createdAt,value
2019-04-14T00:00:55.664Z,27.20
2019-04-14T00:03:52.953Z,26.53
2019-04-14T00:06:22.294Z,26.10
2019-04-14T00:08:50.265Z,26.73
2019-04-14T00:11:19.040Z,27.70
2019-04-14T00:13:47.810Z,26.53
2019-04-14T00:16:16.377Z,26.13
2019-04-14T00:18:44.764Z,26.27
2019-04-14T00:21:12.946Z,27.07
2019-04-14T00:23:41.259Z,26.83
2019-04-14T00:26:35.585Z,25.70
2019-04-14T00:29:04.613Z,25.40
2019-04-14T00:31:32.941Z,26.67
2019-04-14T00:34:35.359Z,27.43
2019-04-14T00:37:27.275Z,26.33
2019-04-14T00:39:59.746Z,27.20
2019-04-14T00:42:34.195Z,26.67
2019-04-14T00:45:32.107Z,27.23
2019-04-14T00:48:03.355Z,25.43
2019-04-14T00:50:25.427Z,27.70
2019-04-14T00:52:54.426Z,27.80
2019-04-14T00:55:22.579Z,27.80
2019-04-14T00:57:50.879Z,26.20
2019-04-14T01:00:19.308Z,28.27
2019-04-14T01:02:49.303Z,27.57
2019-04-14T01:05:17.458Z,26.67
2019-04-14T01:07:45.567Z,28.63
2019-04-14T01:10:13.264Z,27.20
2019-04-14T01:12:41.039Z,27.63
2019-04-14T01:15:09.272Z,26.47
2019-04-14T01:17:37.364Z,26.30
2019-04-14T01:20:05.833Z,26.73
2019-04-14T01:22:33.596Z,25.73
2019-04-14T01:25:02.316Z,26.47
2019-04-14T01:27:30.042Z,27.53
2019-04-14T01:29:58.172Z,26.33
2019-04-14T01:32:26.151Z,27.17
2019-04-14T01:34:54.466Z,28.03
2019-04-14T01:37:23.205Z,26.70
2019-04-14T01:39:50.847Z,27.00
2019-04-14T01:42:18.470Z,28.13
2019-04-14T01:44:46.125Z,28.27
2019-04-14T01:47:13.808Z,26.83
2019-04-14T01:49:41.883Z,26.40
2019-04-14T01:52:41.196Z,27.87
2019-04-14T01:55:41.432Z,27.47
2019-04-14T01:58:14.879Z,26.63
2019-04-14T02:01:14.835Z,26.33
2019-04-14T02:03:43.350Z,27.37
2019-04-14T02:06:11.439Z,25.27
2019-04-14T02:08:39.384Z,27.20
2019-04-14T02:11:07.430Z,25.53
2019-04-14T02:13:35.443Z,26.33
2019-04-14T02:16:15.006Z,26.00
2019-04-14T02:18:33.985Z,27.07
2019-04-14T02:21:02.140Z,26.27
2019-04-14T02:23:30.206Z,25.30
2019-04-14T02:25:58.110Z,25.60
2019-04-14T02:28:26.469Z,26.17
2019-04-14T02:31:08.266Z,25.27
2019-04-14T02:34:02.306Z,25.20
2019-04-14T02:38:57.422Z,26.23
2019-04-14T02:43:51.094Z,24.40
2019-04-14T02:46:32.221Z,25.53
2019-04-14T02:48:50.833Z,24.57
2019-04-14T02:51:21.153Z,25.40
2019-04-14T02:53:49.674Z,25.73
2019-04-14T02:56:28.076Z,26.90
2019-04-14T02:58:59.461Z,24.67
2019-04-14T03:03:43.034Z,26.03
2019-04-14T03:06:12.089Z,25.13
2019-04-14T03:13:45.570Z,25.50
2019-04-14T03:16:24.066Z,26.10
2019-04-14T03:18:50.613Z,25.87
2019-04-14T03:21:45.189Z,26.67
2019-04-14T03:24:27.478Z,25.70
2019-04-14T03:27:00.284Z,27.10
2019-04-14T03:29:43.306Z,26.13
2019-04-14T03:32:14.282Z,26.70
2019-04-14T03:34:44.252Z,27.47
2019-04-14T03:37:30.897Z,26.23
2019-04-14T03:39:38.583Z,26.17
2019-04-14T03:42:00.683Z,25.93
2019-04-14T03:44:34.636Z,26.90
2019-04-14T03:47:08.772Z,26.97
2019-04-14T03:49:31.649Z,26.97
2019-04-14T03:52:15.340Z,27.20
2019-04-14T03:54:20.149Z,26.43
2019-04-14T03:56:51.401Z,26.83
2019-04-14T03:59:19.734Z,27.27
2019-04-14T04:01:47.919Z,26.97
2019-04-14T04:04:16.161Z,27.27
2019-04-14T04:06:44.261Z,26.83
2019-04-14T04:09:12.592Z,26.80
2019-04-14T04:11:41.199Z,27.80
2019-04-14T04:14:09.647Z,27.83
2019-04-14T04:16:57.293Z,27.93
2019-04-14T04:19:35.890Z,27.77
2019-04-14T04:22:23.661Z,26.73
2019-04-14T04:24:59.110Z,27.40
2019-04-14T04:27:44.044Z,28.07
2019-04-14T04:30:25.402Z,28.83
2019-04-14T04:33:05.229Z,27.67
2019-04-14T04:35:37.049Z,28.70
2019-04-14T04:38:22.717Z,28.93
2019-04-14T04:40:50.953Z,26.80
2019-04-14T04:43:19.028Z,29.13
2019-04-14T04:45:47.390Z,29.00
2019-04-14T04:48:15.249Z,28.27
2019-04-14T04:50:43.171Z,29.53
2019-04-14T04:53:11.518Z,28.80
2019-04-14T04:55:39.522Z,29.87
2019-04-14T04:58:07.781Z,29.43
2019-04-14T05:00:35.561Z,29.27
2019-04-14T05:03:03.660Z,28.33
2019-04-14T05:06:23.784Z,27.73
2019-04-14T05:08:54.475Z,29.50
2019-04-14T05:11:29.656Z,28.20
2019-04-14T05:13:58.452Z,28.13
2019-04-14T05:16:26.145Z,29.30
2019-04-14T05:18:53.773Z,29.53
2019-04-14T05:21:21.504Z,30.10
2019-04-14T05:23:49.540Z,29.37
2019-04-14T05:26:17.813Z,28.73
2019-04-14T05:28:46.033Z,28.83
2019-04-14T05:31:14.325Z,30.53
2019-04-14T05:33:42.553Z,28.93
2019-04-14T05:36:10.711Z,29.93
2019-04-14T05:38:38.623Z,30.80
2019-04-14T05:41:06.983Z,29.63
2019-04-14T05:43:43.757Z,29.57
2019-04-14T05:46:05.492Z,30.67
2019-04-14T05:48:33.735Z,32.20
2019-04-14T05:51:02.019Z,31.43
2019-04-14T05:53:30.536Z,31.17
2019-04-14T05:55:59.288Z,31.17
2019-04-14T05:58:27.530Z,31.83
2019-04-14T06:00:55.798Z,31.37
2019-04-14T06:03:23.572Z,31.33
2019-04-14T06:05:51.337Z,29.77
2019-04-14T06:08:18.980Z,31.97
2019-04-14T06:10:46.641Z,30.80
2019-04-14T06:13:14.466Z,30.87
2019-04-14T06:15:42.121Z,31.33
2019-04-14T06:18:10.812Z,31.83
2019-04-14T06:20:38.511Z,33.07
2019-04-14T06:23:07.298Z,32.13
2019-04-14T06:25:36.348Z,33.10
2019-04-14T06:28:04.353Z,30.87
2019-04-14T06:30:44.704Z,32.97
2019-04-14T06:33:24.878Z,31.10
2019-04-14T06:36:21.905Z,31.10
2019-04-14T06:38:52.905Z,31.40
2019-04-14T06:41:20.869Z,32.47
2019-04-14T06:43:49.338Z,32.23
2019-04-14T06:46:17.133Z,32.80
2019-04-14T06:48:44.852Z,34.00
2019-04-14T06:51:12.561Z,33.37
2019-04-14T06:53:40.221Z,33.00
2019-04-14T06:56:07.905Z,32.40
2019-04-14T06:58:35.573Z,33.93
2019-04-14T07:01:03.219Z,32.43
2019-04-14T07:03:30.948Z,32.57
2019-04-14T07:06:00.125Z,33.13
2019-04-14T07:08:29.940Z,31.97
2019-04-14T07:10:57.602Z,32.03
2019-04-14T07:13:25.284Z,33.27
2019-04-14T07:15:52.950Z,33.80
2019-04-14T07:18:20.607Z,32.87
2019-04-14T07:20:48.343Z,32.33
2019-04-14T07:23:16.123Z,32.80
2019-04-14T07:25:43.761Z,32.20
2019-04-14T07:28:11.433Z,33.93
2019-04-14T07:31:07.428Z,31.47
2019-04-14T07:33:54.614Z,32.37
2019-04-14T07:36:41.833Z,31.17
2019-04-14T07:39:27.774Z,32.27
2019-04-14T07:42:02.576Z,32.60
2019-04-14T07:45:02.011Z,32.03
2019-04-14T07:47:49.668Z,32.47
2019-04-14T07:50:35.694Z,33.67
2019-04-14T07:53:22.836Z,33.23
2019-04-14T07:56:02.324Z,33.47
2019-04-14T07:58:49.128Z,32.00
2019-04-14T08:01:21.248Z,32.07
2019-04-14T08:04:08.676Z,31.40
2019-04-14T08:06:38.380Z,34.00
2019-04-14T08:09:06.487Z,34.23
2019-04-14T08:11:34.215Z,33.63
2019-04-14T08:14:01.938Z,40.33
2019-04-14T08:16:29.606Z,35.17
2019-04-14T08:18:57.279Z,38.77
2019-04-14T08:21:25.037Z,34.73
2019-04-14T08:23:53.721Z,34.43
2019-04-14T08:26:21.369Z,32.53
2019-04-14T08:28:48.997Z,31.73
2019-04-14T08:31:16.905Z,31.83
2019-04-14T08:33:44.624Z,34.17
2019-04-14T08:36:12.269Z,33.67
2019-04-14T08:38:41.844Z,33.13
2019-04-14T08:41:09.559Z,33.30
2019-04-14T08:43:42.649Z,33.60
2019-04-14T08:46:32.882Z,31.40
2019-04-14T08:49:11.346Z,33.27
2019-04-14T08:52:01.529Z,35.40
2019-04-14T08:55:06.897Z,32.87
2019-04-14T08:58:05.922Z,32.13
2019-04-14T09:00:43.456Z,31.43
2019-04-14T09:03:22.254Z,32.37
2019-04-14T09:06:03.759Z,31.53
2019-04-14T09:08:53.900Z,30.73
2019-04-14T09:11:27.837Z,31.60
2019-04-14T09:13:55.526Z,31.10
2019-04-14T09:16:23.235Z,29.77
2019-04-14T09:18:53.553Z,30.13
2019-04-14T09:21:20.510Z,31.87
2019-04-14T09:23:48.294Z,29.87
2019-04-14T09:26:16.215Z,29.47
2019-04-14T09:28:43.910Z,29.27
2019-04-14T09:31:11.624Z,28.03
2019-04-14T09:33:39.337Z,29.57
2019-04-14T09:36:07.022Z,29.00
2019-04-14T09:38:34.692Z,28.70
2019-04-14T09:41:02.450Z,28.47
2019-04-14T09:43:30.141Z,27.83
2019-04-14T09:45:57.785Z,29.10
2019-04-14T09:48:25.536Z,30.07
2019-04-14T09:51:04.136Z,31.07
2019-04-14T09:53:23.002Z,29.70
2019-04-14T09:55:50.647Z,29.13
2019-04-14T09:58:18.491Z,29.17
2019-04-14T10:00:46.329Z,27.27
2019-04-14T10:03:14.081Z,28.40
2019-04-14T10:05:41.766Z,28.30
2019-04-14T10:08:09.461Z,27.93
2019-04-14T10:10:37.225Z,28.87
2019-04-14T10:13:05.041Z,28.57
2019-04-14T10:15:33.825Z,27.90
2019-04-14T10:18:01.411Z,31.47
2019-04-14T10:20:30.140Z,27.90
2019-04-14T10:22:57.832Z,28.40
2019-04-14T10:25:25.552Z,28.73
2019-04-14T10:27:53.223Z,27.50
2019-04-14T10:30:20.883Z,26.57
2019-04-14T10:32:48.568Z,28.30
2019-04-14T10:35:16.281Z,26.80
2019-04-14T10:37:43.954Z,28.33
2019-04-14T10:40:11.645Z,27.87
2019-04-14T10:42:39.334Z,28.30
2019-04-14T10:45:07.018Z,28.63
2019-04-14T10:47:34.735Z,28.03
2019-04-14T10:50:02.413Z,28.90
2019-04-14T10:52:30.099Z,28.63
2019-04-14T10:54:57.798Z,27.13
2019-04-14T10:57:25.513Z,28.30
2019-04-14T10:59:53.173Z,27.67
2019-04-14T11:02:20.911Z,27.60
2019-04-14T11:04:48.561Z,27.73
2019-04-14T11:07:21.691Z,27.40
2019-04-14T11:09:49.378Z,27.80
2019-04-14T11:12:17.082Z,26.73
2019-04-14T11:14:44.756Z,26.70
2019-04-14T11:17:12.849Z,27.27
2019-04-14T11:19:40.540Z,27.67
2019-04-14T11:22:08.316Z,25.53
2019-04-14T11:24:36.076Z,26.53
2019-04-14T11:27:03.843Z,27.13
2019-04-14T11:29:31.474Z,25.83
2019-04-14T11:32:14.308Z,26.27
2019-04-14T11:34:46.842Z,25.87
2019-04-14T11:37:52.521Z,25.80
2019-04-14T11:40:22.737Z,25.77
2019-04-14T11:42:52.628Z,25.20
2019-04-14T11:45:21.006Z,26.10
2019-04-14T11:47:48.721Z,25.90
2019-04-14T11:50:16.509Z,25.53
2019-04-14T11:52:44.293Z,25.33
2019-04-14T11:55:12.045Z,25.70
2019-04-14T11:57:39.723Z,24.37
2019-04-14T12:00:25.637Z,24.77
2019-04-14T12:03:22.057Z,24.40
2019-04-14T12:06:06.513Z,24.70
2019-04-14T12:08:45.806Z,23.73
2019-04-14T12:11:13.504Z,25.17
2019-04-14T12:13:41.161Z,22.90
2019-04-14T12:16:08.828Z,24.57
2019-04-14T12:18:36.547Z,23.23
2019-04-14T12:21:04.264Z,22.70
2019-04-14T12:23:32.065Z,22.63
2019-04-14T12:26:05.449Z,22.87
2019-04-14T12:28:29.348Z,21.60
2019-04-14T12:30:57.593Z,22.57
2019-04-14T12:33:25.385Z,22.47
2019-04-14T12:35:53.145Z,22.07
2019-04-14T12:38:20.921Z,23.43
2019-04-14T12:40:49.378Z,22.43
2019-04-14T12:43:26.433Z,20.57
2019-04-14T12:46:12.321Z,21.17
2019-04-14T12:48:48.014Z,20.20
2019-04-14T12:51:20.578Z,19.73
2019-04-14T12:53:48.500Z,20.23
2019-04-14T12:56:19.222Z,19.63
2019-04-14T12:58:56.281Z,19.33
2019-04-14T13:01:25.607Z,19.90
2019-04-14T13:03:54.805Z,19.43
2019-04-14T13:06:22.490Z,19.03
2019-04-14T13:08:50.149Z,18.77
2019-04-14T13:11:17.853Z,18.13
2019-04-14T13:13:45.601Z,18.40
2019-04-14T13:16:13.555Z,19.00
2019-04-14T13:18:41.245Z,19.03
2019-04-14T13:21:09.186Z,17.70
2019-04-14T13:23:37.003Z,18.13
2019-04-14T13:26:04.682Z,17.40
2019-04-14T13:28:32.358Z,17.27
2019-04-14T13:31:00.069Z,16.10
2019-04-14T13:33:27.757Z,15.57
2019-04-14T13:35:55.443Z,15.73
2019-04-14T13:38:23.087Z,14.77
2019-04-14T13:40:50.769Z,15.07
2019-04-14T13:43:18.474Z,16.33
2019-04-14T13:45:46.136Z,15.40
2019-04-14T13:48:14.285Z,15.97
2019-04-14T13:50:42.043Z,16.20
2019-04-14T13:53:09.708Z,14.70
2019-04-14T13:55:37.489Z,15.10
2019-04-14T13:58:05.304Z,14.73
2019-04-14T14:00:33.064Z,14.67
2019-04-14T14:03:01.057Z,13.77
2019-04-14T14:05:28.853Z,13.50
2019-04-14T14:07:56.627Z,13.07
2019-04-14T14:10:24.287Z,14.20
2019-04-14T14:13:14.365Z,13.50
2019-04-14T14:15:59.949Z,14.00
2019-04-14T14:18:53.409Z,13.77
2019-04-14T14:21:29.939Z,12.93
2019-04-14T14:24:15.839Z,12.10
2019-04-14T14:26:44.149Z,13.70
2019-04-14T14:29:11.866Z,12.77
2019-04-14T14:31:39.659Z,13.67
2019-04-14T14:34:07.421Z,12.80
2019-04-14T14:36:35.122Z,12.30
2019-04-14T14:39:04.680Z,12.73
2019-04-14T14:41:33.752Z,12.73
2019-04-14T14:44:01.507Z,12.33
2019-04-14T14:46:48.041Z,13.03
2019-04-14T14:49:23.135Z,12.53
2019-04-14T14:51:53.664Z,12.07
2019-04-14T14:54:21.345Z,11.73
2019-04-14T14:56:50.008Z,12.90
2019-04-14T14:59:17.767Z,12.43
2019-04-14T15:01:45.537Z,12.37
2019-04-14T15:04:13.207Z,12.73
2019-04-14T15:06:40.923Z,12.07
2019-04-14T15:09:08.621Z,12.67
2019-04-14T15:11:36.333Z,11.83
2019-04-14T15:14:05.294Z,12.40
2019-04-14T15:16:32.969Z,12.37
2019-04-14T15:19:00.603Z,12.97
2019-04-14T15:21:28.376Z,12.40
2019-04-14T15:23:56.047Z,12.37
2019-04-14T15:26:23.723Z,12.83
2019-04-14T15:28:51.405Z,12.20
2019-04-14T15:31:20.240Z,14.63
2019-04-14T15:33:47.888Z,11.67
2019-04-14T15:36:15.630Z,13.47
2019-04-14T15:38:43.278Z,12.53
2019-04-14T15:41:11.037Z,12.53
2019-04-14T15:43:38.818Z,12.33
2019-04-14T15:46:06.558Z,12.93
2019-04-14T15:48:34.189Z,12.43
2019-04-14T15:51:01.967Z,12.67
2019-04-14T15:53:37.795Z,12.37
2019-04-14T15:55:59.492Z,12.77
2019-04-14T15:58:41.813Z,12.43
2019-04-14T16:01:38.162Z,11.67
2019-04-14T16:04:16.621Z,11.70
2019-04-14T16:06:59.157Z,10.97
2019-04-14T16:09:38.505Z,11.63
2019-04-14T16:12:25.072Z,10.93
2019-04-14T16:15:13.020Z,11.83
2019-04-14T16:18:10.668Z,11.97
2019-04-14T16:20:40.589Z,11.87
2019-04-14T16:23:11.085Z,12.20
2019-04-14T16:25:47.979Z,12.93
2019-04-14T16:28:21.302Z,12.77
2019-04-14T16:31:07.243Z,11.37
2019-04-14T16:33:53.801Z,11.23
2019-04-14T16:36:21.513Z,12.00
2019-04-14T16:38:49.226Z,11.70
2019-04-14T16:41:16.905Z,11.60
2019-04-14T16:43:44.607Z,11.17
2019-04-14T16:46:12.329Z,11.97
2019-04-14T16:48:40.191Z,12.37
2019-04-14T16:51:09.654Z,11.63
2019-04-14T16:53:39.789Z,12.17
2019-04-14T16:56:39.221Z,12.47
2019-04-14T16:59:12.781Z,11.40
2019-04-14T17:01:42.799Z,12.40
2019-04-14T17:04:10.708Z,12.13
2019-04-14T17:06:38.496Z,12.83
2019-04-14T17:09:07.157Z,11.90
2019-04-14T17:11:36.672Z,12.13
2019-04-14T17:14:12.684Z,12.77
2019-04-14T17:17:05.748Z,12.77
2019-04-14T17:19:40.774Z,13.13
2019-04-14T17:22:33.738Z,11.70
2019-04-14T17:25:26.131Z,11.40
2019-04-14T17:28:13.781Z,11.50
2019-04-14T17:31:07.084Z,12.53
2019-04-14T17:33:42.381Z,14.30
2019-04-14T17:36:41.844Z,14.30
2019-04-14T17:39:25.282Z,14.30
2019-04-14T17:42:09.373Z,14.67
2019-04-14T17:44:41.552Z,13.67
2019-04-14T17:47:36.184Z,14.00
2019-04-14T17:50:39.786Z,13.53
2019-04-14T17:53:01.409Z,14.67
2019-04-14T17:56:00.488Z,13.70
2019-04-14T17:58:35.908Z,13.93
2019-04-14T18:01:32.076Z,14.70
2019-04-14T18:04:34.302Z,14.00
2019-04-14T18:07:15.898Z,13.80
2019-04-14T18:10:01.463Z,13.60
2019-04-14T18:12:51.519Z,14.20
2019-04-14T18:15:41.346Z,13.40
2019-04-14T18:18:24.809Z,14.33
2019-04-14T18:20:55.719Z,13.20
2019-04-14T18:23:23.470Z,13.57
2019-04-14T18:25:51.165Z,13.10
2019-04-14T18:28:36.700Z,13.57
2019-04-14T18:31:22.292Z,12.87
2019-04-14T18:34:27.458Z,13.20
2019-04-14T18:37:23.798Z,12.40
2019-04-14T18:40:16.798Z,13.43
2019-04-14T18:43:06.868Z,12.97
2019-04-14T18:45:42.769Z,13.43
2019-04-14T18:48:15.033Z,12.37
2019-04-14T18:51:03.402Z,13.57
2019-04-14T18:53:42.321Z,12.77
2019-04-14T18:56:35.549Z,12.03
2019-04-14T18:59:21.612Z,12.83
2019-04-14T19:01:49.845Z,12.57
2019-04-14T19:04:17.639Z,12.80
2019-04-14T19:06:45.350Z,11.90
2019-04-14T19:09:13.358Z,12.17
2019-04-14T19:11:52.600Z,12.30
2019-04-14T19:14:24.229Z,11.67
2019-04-14T19:16:56.658Z,12.13
2019-04-14T19:19:24.432Z,11.90
2019-04-14T19:21:52.178Z,11.77
2019-04-14T19:24:20.005Z,11.30
2019-04-14T19:26:47.897Z,11.30
2019-04-14T19:29:15.608Z,11.17
2019-04-14T19:31:43.571Z,10.77
2019-04-14T19:34:11.248Z,11.13
2019-04-14T19:36:38.936Z,10.83
2019-04-14T19:39:09.018Z,11.23
2019-04-14T19:41:37.052Z,11.10
2019-04-14T19:44:04.743Z,10.83
2019-04-14T19:46:32.448Z,10.07
2019-04-14T19:49:00.142Z,10.83
2019-04-14T19:51:27.893Z,11.03
2019-04-14T19:53:55.672Z,10.13
2019-04-14T19:56:23.361Z,9.57
2019-04-14T19:58:51.082Z,10.00
2019-04-14T20:01:18.794Z,9.33
2019-04-14T20:03:46.550Z,9.93
2019-04-14T20:06:14.246Z,9.80
2019-04-14T20:08:41.994Z,10.67
2019-04-14T20:11:09.710Z,9.87
2019-04-14T20:13:40.746Z,9.97
2019-04-14T20:16:27.669Z,10.13
2019-04-14T20:19:12.040Z,9.63
2019-04-14T20:22:16.940Z,9.80
2019-04-14T20:25:02.571Z,9.90
2019-04-14T20:27:52.588Z,9.93
2019-04-14T20:30:33.382Z,9.00
2019-04-14T20:33:01.053Z,9.27
2019-04-14T20:35:28.780Z,9.70
2019-04-14T20:37:56.758Z,9.47
2019-04-14T20:40:24.411Z,9.43
2019-04-14T20:42:52.067Z,9.60
2019-04-14T20:45:19.758Z,10.07
2019-04-14T20:47:47.422Z,9.03
2019-04-14T20:50:15.238Z,8.90
2019-04-14T20:52:42.965Z,10.13
2019-04-14T20:55:10.620Z,9.67
2019-04-14T20:57:38.375Z,10.00
2019-04-14T21:00:06.980Z,9.57
2019-04-14T21:02:51.338Z,10.23
2019-04-14T21:05:38.714Z,10.20
2019-04-14T21:08:19.795Z,10.30
2019-04-14T21:10:54.482Z,9.70
2019-04-14T21:13:44.649Z,10.10
2019-04-14T21:16:22.812Z,9.97
2019-04-14T21:18:53.755Z,9.33
2019-04-14T21:21:43.481Z,9.97
2019-04-14T21:24:30.510Z,9.97
2019-04-14T21:27:12.742Z,10.03
2019-04-14T21:29:50.193Z,10.73
2019-04-14T21:32:27.514Z,10.53
2019-04-14T21:35:23.710Z,10.30
2019-04-14T21:38:17.769Z,9.57
2019-04-14T21:40:54.406Z,10.27
2019-04-14T21:43:22.218Z,10.27
2019-04-14T21:45:49.986Z,10.17
2019-04-14T21:48:17.777Z,10.10
2019-04-14T21:50:45.448Z,10.50
2019-04-14T21:53:13.116Z,10.17
2019-04-14T21:55:40.801Z,10.67
2019-04-14T21:58:20.054Z,10.37
2019-04-14T22:01:44.441Z,9.83
2019-04-14T22:04:49.540Z,9.23
2019-04-14T22:07:35.353Z,9.30
2019-04-14T22:10:22.918Z,9.53
2019-04-14T22:12:50.657Z,10.07
2019-04-14T22:15:18.316Z,9.23
2019-04-14T22:17:46.016Z,9.63
2019-04-14T22:20:13.810Z,9.23
2019-04-14T22:22:41.561Z,8.90
2019-04-14T22:25:10.386Z,9.43
2019-04-14T22:27:38.054Z,9.23
2019-04-14T22:30:07.046Z,9.93
2019-04-14T22:32:34.737Z,9.13
2019-04-14T22:35:02.439Z,10.07
2019-04-14T22:37:31.255Z,9.13
2019-04-14T22:39:59.095Z,8.93
2019-04-14T22:42:26.766Z,9.57
2019-04-14T22:44:54.409Z,8.73
2019-04-14T22:47:22.117Z,9.83
2019-04-14T22:49:49.759Z,9.27
2019-04-14T22:52:17.416Z,9.13
2019-04-14T22:54:45.082Z,9.40
2019-04-14T22:57:12.740Z,9.03
2019-04-14T22:59:40.408Z,9.67
2019-04-14T23:02:13.774Z,10.07
2019-04-14T23:04:59.605Z,9.20
2019-04-14T23:07:45.154Z,9.10
2019-04-14T23:10:22.084Z,9.20
2019-04-14T23:13:00.154Z,9.53
2019-04-14T23:15:45.940Z,9.27
2019-04-14T23:18:33.645Z,8.87
2019-04-14T23:21:32.736Z,8.63
2019-04-14T23:24:12.167Z,8.67
2019-04-14T23:26:51.853Z,8.30
2019-04-14T23:29:09.381Z,9.13
2019-04-14T23:31:37.124Z,8.47
2019-04-14T23:34:04.781Z,8.77
2019-04-14T23:36:32.508Z,8.13
2019-04-14T23:39:00.143Z,8.77
2019-04-14T23:41:27.797Z,8.70
2019-04-14T23:43:55.458Z,8.27
2019-04-14T23:46:23.121Z,8.23
2019-04-14T23:48:50.870Z,8.53
2019-04-14T23:51:18.584Z,8.67
2019-04-14T23:53:46.267Z,8.87
2019-04-14T23:56:13.931Z,9.00
2019-04-14T23:58:41.727Z,8.60
